Airfield :
LOGIN :

Register | Disclaimer

   EN    FR    IT 

 










Legend :    VFR   Marginal VFR   IFR   Intensive IFR   Very Intensive IFR
Visi :
Ceiling :
>= 8 km
>= 3000ft
5 to 8 km
1000 to 3000 ft
1500m to 5 km
500 to 1000 ft
800 to 1500m
200 to 500 ft
< 800m
< 200 ft
Symbols :   Thunderstorms  Fog  Heavy snow  Heavy precipitations  Wind > 20 kt
SIGMETs :     Misc.  Thunderstorms  Icing  Turbulence  Mountain Waves  Volcanic Ashes






- Airport Elevation : 375 ft
- IATA code : MST


EHBK - Maastricht Aachen

CURRENT METAR :
  • 211755Z AUTO 25004KT 210V290 9999 NSC 07/05 Q1012 NOSIG

EXPIRED METARs :
  • 211725Z AUTO 26005KT 220V300 9999 NSC 08/05 Q1011 NOSIG
  • 211655Z AUTO 27004KT 220V330 9999 NSC 09/06 Q1011 TEMPO 29015G25KT 7000 -SHRA SCT020CB
  • 211625Z AUTO 28006KT 210V340 9999 FEW023 SCT028 BKN031 09/06 Q1010 TEMPO 29015G25KT 7000 -SHRA SCT020CB
  • 211555Z AUTO 27007KT 220V320 9999 SCT026 SCT040 BKN044 10/06 Q1010 TEMPO 29015G25KT 7000 -SHRA SCT020CB
  • 211525Z AUTO 27009KT 210V320 9999 BKN020 BKN025 BKN029 10/06 Q1009 TEMPO 29015G25KT 6000 SHRA SCT020CB

TAF TAF EHBK
Valid from the 21 at 18:00 until the 23 at 00:00 UTC


211719Z 2118/2224 26006KT 9999 FEW040
BECMG 2203/2206 23012KT
BECMG 2208/2211 26015G25KT
BECMG 2213/2216 25012KT
PROB30
TEMPO 2217/2223 7000 -SHRA BKN015 FEW025CB



MET'MAP, your aeronautical weather chart ! - Copyright ORBIFLY December 2007 - Disclaimer

ORBIFLY MET'MAP TEAM :

Programming & Development : Alexandra Zaïnal
Concept & original design : Baudouin d'Aumeries
Assistance for programming : Marc-Olivier Méhu
Technical & hardware support : Manuel Goepfert

Contact : metmap@orbifly.com




SOURCES & CREDITS :

   NOAA